sensor_id;sensor_type;location;lat;lon;timestamp;temperature;humidity
60313;DHT22;46158;52.850;6.970;2023-07-29T00:00:42;20.90;84.30
60313;DHT22;46158;52.850;6.970;2023-07-29T00:03:09;20.90;84.30
60313;DHT22;46158;52.850;6.970;2023-07-29T00:05:34;20.90;84.30
60313;DHT22;46158;52.850;6.970;2023-07-29T00:08:00;20.90;84.40
60313;DHT22;46158;52.850;6.970;2023-07-29T00:10:26;20.90;84.40
60313;DHT22;46158;52.850;6.970;2023-07-29T00:12:52;20.90;84.40
60313;DHT22;46158;52.850;6.970;2023-07-29T00:15:18;20.90;84.40
60313;DHT22;46158;52.850;6.970;2023-07-29T00:17:44;20.90;84.40
60313;DHT22;46158;52.850;6.970;2023-07-29T00:20:09;20.90;84.40
60313;DHT22;46158;52.850;6.970;2023-07-29T00:22:35;20.90;84.50
60313;DHT22;46158;52.850;6.970;2023-07-29T00:25:01;20.90;84.50
60313;DHT22;46158;52.850;6.970;2023-07-29T00:27:27;20.90;84.50
60313;DHT22;46158;52.850;6.970;2023-07-29T00:29:52;20.80;84.40
60313;DHT22;46158;52.850;6.970;2023-07-29T00:32:18;20.80;84.40
60313;DHT22;46158;52.850;6.970;2023-07-29T00:34:44;20.80;84.50
60313;DHT22;46158;52.850;6.970;2023-07-29T00:37:10;20.80;84.50
60313;DHT22;46158;52.850;6.970;2023-07-29T00:39:36;20.80;84.50
60313;DHT22;46158;52.850;6.970;2023-07-29T00:42:06;20.80;84.50
60313;DHT22;46158;52.850;6.970;2023-07-29T00:44:32;20.80;84.60
60313;DHT22;46158;52.850;6.970;2023-07-29T00:46:59;20.80;84.50
60313;DHT22;46158;52.850;6.970;2023-07-29T00:49:26;20.80;84.50
60313;DHT22;46158;52.850;6.970;2023-07-29T00:51:52;20.80;84.50
60313;DHT22;46158;52.850;6.970;2023-07-29T00:54:17;20.80;84.60
60313;DHT22;46158;52.850;6.970;2023-07-29T00:56:43;20.80;84.60
60313;DHT22;46158;52.850;6.970;2023-07-29T00:59:09;20.80;84.60
60313;DHT22;46158;52.850;6.970;2023-07-29T01:01:35;20.80;84.60
60313;DHT22;46158;52.850;6.970;2023-07-29T01:04:01;20.80;84.60
60313;DHT22;46158;52.850;6.970;2023-07-29T01:06:34;20.80;84.60
60313;DHT22;46158;52.850;6.970;2023-07-29T01:09:09;20.80;84.60
60313;DHT22;46158;52.850;6.970;2023-07-29T01:11:53;20.80;84.60
60313;DHT22;46158;52.850;6.970;2023-07-29T01:15:33;20.80;84.60
60313;DHT22;46158;52.850;6.970;2023-07-29T01:17:35;20.80;84.50
60313;DHT22;46158;52.850;6.970;2023-07-29T01:20:07;20.70;84.70
60313;DHT22;46158;52.850;6.970;2023-07-29T01:22:34;20.80;84.70
60313;DHT22;46158;52.850;6.970;2023-07-29T01:25:00;20.70;84.70
60313;DHT22;46158;52.850;6.970;2023-07-29T01:27:27;20.70;84.70
60313;DHT22;46158;52.850;6.970;2023-07-29T01:29:53;20.80;84.70
60313;DHT22;46158;52.850;6.970;2023-07-29T01:32:43;20.70;84.70
60313;DHT22;46158;52.850;6.970;2023-07-29T01:35:18;20.70;84.60
60313;DHT22;46158;52.850;6.970;2023-07-29T01:37:49;20.70;84.70
60313;DHT22;46158;52.850;6.970;2023-07-29T01:40:15;20.70;84.60
60313;DHT22;46158;52.850;6.970;2023-07-29T01:42:42;20.70;84.70
60313;DHT22;46158;52.850;6.970;2023-07-29T01:45:08;20.70;84.70
60313;DHT22;46158;52.850;6.970;2023-07-29T01:47:34;20.70;84.70
60313;DHT22;46158;52.850;6.970;2023-07-29T01:49:59;20.70;84.70
60313;DHT22;46158;52.850;6.970;2023-07-29T01:52:25;20.70;84.70
60313;DHT22;46158;52.850;6.970;2023-07-29T01:54:50;20.70;84.70
60313;DHT22;46158;52.850;6.970;2023-07-29T01:57:16;20.70;84.70
60313;DHT22;46158;52.850;6.970;2023-07-29T01:59:42;20.70;84.70
60313;DHT22;46158;52.850;6.970;2023-07-29T02:02:07;20.70;84.70
60313;DHT22;46158;52.850;6.970;2023-07-29T02:04:33;20.70;84.70
60313;DHT22;46158;52.850;6.970;2023-07-29T02:06:59;20.70;84.70
60313;DHT22;46158;52.850;6.970;2023-07-29T02:09:24;20.70;84.70
60313;DHT22;46158;52.850;6.970;2023-07-29T02:11:51;20.70;84.70
60313;DHT22;46158;52.850;6.970;2023-07-29T02:14:17;20.60;84.70
60313;DHT22;46158;52.850;6.970;2023-07-29T02:16:43;20.70;84.70
60313;DHT22;46158;52.850;6.970;2023-07-29T02:19:08;20.60;84.60
60313;DHT22;46158;52.850;6.970;2023-07-29T02:21:34;20.60;84.70
60313;DHT22;46158;52.850;6.970;2023-07-29T02:23:59;20.70;84.70
60313;DHT22;46158;52.850;6.970;2023-07-29T02:26:25;20.60;84.70
60313;DHT22;46158;52.850;6.970;2023-07-29T02:28:51;20.60;84.70
60313;DHT22;46158;52.850;6.970;2023-07-29T02:31:21;20.60;84.70
60313;DHT22;46158;52.850;6.970;2023-07-29T02:33:46;20.60;84.60
60313;DHT22;46158;52.850;6.970;2023-07-29T02:36:13;20.60;84.70
60313;DHT22;46158;52.850;6.970;2023-07-29T02:38:39;20.60;84.70
60313;DHT22;46158;52.850;6.970;2023-07-29T02:41:05;20.60;84.70
60313;DHT22;46158;52.850;6.970;2023-07-29T02:43:31;20.60;84.60
60313;DHT22;46158;52.850;6.970;2023-07-29T02:45:57;20.60;84.70
60313;DHT22;46158;52.850;6.970;2023-07-29T02:48:23;20.60;84.70
60313;DHT22;46158;52.850;6.970;2023-07-29T02:50:49;20.60;84.70
60313;DHT22;46158;52.850;6.970;2023-07-29T02:53:15;20.60;84.70
60313;DHT22;46158;52.850;6.970;2023-07-29T02:55:40;20.60;84.70
60313;DHT22;46158;52.850;6.970;2023-07-29T02:58:06;20.60;84.70
60313;DHT22;46158;52.850;6.970;2023-07-29T03:00:32;20.60;84.70
60313;DHT22;46158;52.850;6.970;2023-07-29T03:02:58;20.50;84.60
60313;DHT22;46158;52.850;6.970;2023-07-29T03:05:24;20.50;84.60
60313;DHT22;46158;52.850;6.970;2023-07-29T03:07:50;20.50;84.60
60313;DHT22;46158;52.850;6.970;2023-07-29T03:10:16;20.50;84.80
60313;DHT22;46158;52.850;6.970;2023-07-29T03:12:41;20.50;84.60
60313;DHT22;46158;52.850;6.970;2023-07-29T03:15:07;20.50;84.60
60313;DHT22;46158;52.850;6.970;2023-07-29T03:17:33;20.50;84.60
60313;DHT22;46158;52.850;6.970;2023-07-29T03:19:59;20.50;84.60
60313;DHT22;46158;52.850;6.970;2023-07-29T03:22:24;20.50;84.70
60313;DHT22;46158;52.850;6.970;2023-07-29T03:24:50;20.50;84.60
60313;DHT22;46158;52.850;6.970;2023-07-29T03:27:16;20.50;84.70
60313;DHT22;46158;52.850;6.970;2023-07-29T03:29:42;20.50;84.60
60313;DHT22;46158;52.850;6.970;2023-07-29T03:32:07;20.50;84.60
60313;DHT22;46158;52.850;6.970;2023-07-29T03:34:34;20.50;84.60
60313;DHT22;46158;52.850;6.970;2023-07-29T03:37:00;20.50;84.60
60313;DHT22;46158;52.850;6.970;2023-07-29T03:39:26;20.50;84.60
60313;DHT22;46158;52.850;6.970;2023-07-29T03:41:52;20.50;84.60
60313;DHT22;46158;52.850;6.970;2023-07-29T03:44:18;20.50;84.60
60313;DHT22;46158;52.850;6.970;2023-07-29T03:46:44;20.50;84.60
60313;DHT22;46158;52.850;6.970;2023-07-29T03:49:10;20.50;84.60
60313;DHT22;46158;52.850;6.970;2023-07-29T03:51:36;20.50;84.60
60313;DHT22;46158;52.850;6.970;2023-07-29T03:54:02;20.50;84.60
60313;DHT22;46158;52.850;6.970;2023-07-29T03:56:27;20.50;84.60
60313;DHT22;46158;52.850;6.970;2023-07-29T03:58:53;20.50;84.60
60313;DHT22;46158;52.850;6.970;2023-07-29T04:01:19;20.50;84.70
60313;DHT22;46158;52.850;6.970;2023-07-29T04:03:45;20.40;84.60
60313;DHT22;46158;52.850;6.970;2023-07-29T04:06:15;20.40;84.60
60313;DHT22;46158;52.850;6.970;2023-07-29T04:08:40;20.40;84.50
60313;DHT22;46158;52.850;6.970;2023-07-29T04:11:07;20.40;84.70
60313;DHT22;46158;52.850;6.970;2023-07-29T04:13:32;20.40;84.60
60313;DHT22;46158;52.850;6.970;2023-07-29T04:15:58;20.40;84.60
60313;DHT22;46158;52.850;6.970;2023-07-29T04:18:24;20.40;84.60
60313;DHT22;46158;52.850;6.970;2023-07-29T04:20:49;20.40;84.60
60313;DHT22;46158;52.850;6.970;2023-07-29T04:23:15;20.40;84.60
60313;DHT22;46158;52.850;6.970;2023-07-29T04:25:41;20.40;84.60
60313;DHT22;46158;52.850;6.970;2023-07-29T04:28:06;20.40;84.60
60313;DHT22;46158;52.850;6.970;2023-07-29T04:30:32;20.40;84.60
60313;DHT22;46158;52.850;6.970;2023-07-29T04:32:58;20.40;84.60
60313;DHT22;46158;52.850;6.970;2023-07-29T04:35:23;20.40;84.60
60313;DHT22;46158;52.850;6.970;2023-07-29T04:37:49;20.40;84.60
60313;DHT22;46158;52.850;6.970;2023-07-29T04:40:15;20.30;84.50
60313;DHT22;46158;52.850;6.970;2023-07-29T04:42:42;20.30;84.50
60313;DHT22;46158;52.850;6.970;2023-07-29T04:45:07;20.40;84.60
60313;DHT22;46158;52.850;6.970;2023-07-29T04:47:33;20.30;84.50
60313;DHT22;46158;52.850;6.970;2023-07-29T04:49:59;20.30;84.40
60313;DHT22;46158;52.850;6.970;2023-07-29T04:52:24;20.30;84.20
60313;DHT22;46158;52.850;6.970;2023-07-29T04:54:50;20.30;84.10
60313;DHT22;46158;52.850;6.970;2023-07-29T04:57:16;20.30;84.00
60313;DHT22;46158;52.850;6.970;2023-07-29T04:59:42;20.30;84.00
60313;DHT22;46158;52.850;6.970;2023-07-29T05:02:07;20.30;84.00
60313;DHT22;46158;52.850;6.970;2023-07-29T05:04:33;20.20;83.90
60313;DHT22;46158;52.850;6.970;2023-07-29T05:06:59;20.30;84.00
60313;DHT22;46158;52.850;6.970;2023-07-29T05:09:24;20.30;84.00
60313;DHT22;46158;52.850;6.970;2023-07-29T05:11:51;20.20;84.00
60313;DHT22;46158;52.850;6.970;2023-07-29T05:14:17;20.20;83.90
60313;DHT22;46158;52.850;6.970;2023-07-29T05:16:44;20.20;83.90
60313;DHT22;46158;52.850;6.970;2023-07-29T05:19:10;20.20;83.90
60313;DHT22;46158;52.850;6.970;2023-07-29T05:21:37;20.10;83.80
60313;DHT22;46158;52.850;6.970;2023-07-29T05:24:03;20.10;83.80
60313;DHT22;46158;52.850;6.970;2023-07-29T05:26:29;20.10;83.90
60313;DHT22;46158;52.850;6.970;2023-07-29T05:28:55;20.10;84.00
60313;DHT22;46158;52.850;6.970;2023-07-29T05:31:21;20.10;83.90
60313;DHT22;46158;52.850;6.970;2023-07-29T05:33:47;20.00;83.80
60313;DHT22;46158;52.850;6.970;2023-07-29T05:36:13;20.00;83.80
60313;DHT22;46158;52.850;6.970;2023-07-29T05:38:38;20.10;83.90
60313;DHT22;46158;52.850;6.970;2023-07-29T05:41:05;20.00;84.00
60313;DHT22;46158;52.850;6.970;2023-07-29T05:43:31;20.00;84.00
60313;DHT22;46158;52.850;6.970;2023-07-29T05:45:57;20.00;84.10
60313;DHT22;46158;52.850;6.970;2023-07-29T05:48:22;20.00;84.20
60313;DHT22;46158;52.850;6.970;2023-07-29T05:50:48;20.00;84.20
60313;DHT22;46158;52.850;6.970;2023-07-29T05:53:14;20.00;84.30
60313;DHT22;46158;52.850;6.970;2023-07-29T05:55:40;20.00;84.40
60313;DHT22;46158;52.850;6.970;2023-07-29T05:58:06;20.00;84.60
60313;DHT22;46158;52.850;6.970;2023-07-29T06:00:32;20.00;84.70
60313;DHT22;46158;52.850;6.970;2023-07-29T06:02:57;19.90;84.70
60313;DHT22;46158;52.850;6.970;2023-07-29T06:05:23;19.90;84.80
60313;DHT22;46158;52.850;6.970;2023-07-29T06:07:49;19.90;84.80
60313;DHT22;46158;52.850;6.970;2023-07-29T06:10:15;19.90;84.80
60313;DHT22;46158;52.850;6.970;2023-07-29T06:12:46;20.00;84.90
60313;DHT22;46158;52.850;6.970;2023-07-29T06:15:12;20.00;85.00
60313;DHT22;46158;52.850;6.970;2023-07-29T06:17:38;19.90;85.00
60313;DHT22;46158;52.850;6.970;2023-07-29T06:20:05;19.90;85.00
60313;DHT22;46158;52.850;6.970;2023-07-29T06:22:31;19.90;85.00
60313;DHT22;46158;52.850;6.970;2023-07-29T06:24:57;19.90;85.00
60313;DHT22;46158;52.850;6.970;2023-07-29T06:27:23;20.00;85.20
60313;DHT22;46158;52.850;6.970;2023-07-29T06:29:50;19.90;85.20
60313;DHT22;46158;52.850;6.970;2023-07-29T06:32:16;19.90;85.30
60313;DHT22;46158;52.850;6.970;2023-07-29T06:34:42;20.00;85.30
60313;DHT22;46158;52.850;6.970;2023-07-29T06:37:08;19.90;85.30
60313;DHT22;46158;52.850;6.970;2023-07-29T06:39:33;20.00;85.30
60313;DHT22;46158;52.850;6.970;2023-07-29T06:41:59;19.90;85.30
60313;DHT22;46158;52.850;6.970;2023-07-29T06:44:25;20.00;85.30
60313;DHT22;46158;52.850;6.970;2023-07-29T06:46:50;19.90;85.40
60313;DHT22;46158;52.850;6.970;2023-07-29T06:49:16;20.00;85.50
60313;DHT22;46158;52.850;6.970;2023-07-29T06:51:42;20.00;85.40
60313;DHT22;46158;52.850;6.970;2023-07-29T06:54:07;19.90;85.40
60313;DHT22;46158;52.850;6.970;2023-07-29T06:56:33;19.90;85.40
60313;DHT22;46158;52.850;6.970;2023-07-29T06:58:58;20.00;85.50
60313;DHT22;46158;52.850;6.970;2023-07-29T07:01:24;20.00;85.50
60313;DHT22;46158;52.850;6.970;2023-07-29T07:03:50;20.00;85.40
60313;DHT22;46158;52.850;6.970;2023-07-29T07:06:15;20.00;85.40
60313;DHT22;46158;52.850;6.970;2023-07-29T07:08:41;20.00;85.40
60313;DHT22;46158;52.850;6.970;2023-07-29T07:11:07;20.00;85.40
60313;DHT22;46158;52.850;6.970;2023-07-29T07:13:33;20.00;85.40
60313;DHT22;46158;52.850;6.970;2023-07-29T07:15:59;20.00;85.40
60313;DHT22;46158;52.850;6.970;2023-07-29T07:18:24;20.00;85.50
60313;DHT22;46158;52.850;6.970;2023-07-29T07:20:50;20.00;85.40
60313;DHT22;46158;52.850;6.970;2023-07-29T07:23:17;20.00;85.40
60313;DHT22;46158;52.850;6.970;2023-07-29T07:25:43;20.00;85.40
60313;DHT22;46158;52.850;6.970;2023-07-29T07:28:09;20.00;85.40
60313;DHT22;46158;52.850;6.970;2023-07-29T07:30:35;20.00;85.40
60313;DHT22;46158;52.850;6.970;2023-07-29T07:33:04;20.00;85.30
60313;DHT22;46158;52.850;6.970;2023-07-29T07:35:30;20.00;85.30
60313;DHT22;46158;52.850;6.970;2023-07-29T07:37:56;20.00;85.30
60313;DHT22;46158;52.850;6.970;2023-07-29T07:40:21;20.00;85.20
60313;DHT22;46158;52.850;6.970;2023-07-29T07:42:47;20.00;85.20
60313;DHT22;46158;52.850;6.970;2023-07-29T07:45:13;20.00;85.20
60313;DHT22;46158;52.850;6.970;2023-07-29T07:47:38;20.00;85.20
60313;DHT22;46158;52.850;6.970;2023-07-29T07:50:04;20.00;85.20
60313;DHT22;46158;52.850;6.970;2023-07-29T07:52:30;20.00;85.10
60313;DHT22;46158;52.850;6.970;2023-07-29T07:54:56;20.00;85.10
60313;DHT22;46158;52.850;6.970;2023-07-29T07:57:21;20.00;85.10
60313;DHT22;46158;52.850;6.970;2023-07-29T07:59:47;20.10;85.20
60313;DHT22;46158;52.850;6.970;2023-07-29T08:02:13;20.00;85.00
60313;DHT22;46158;52.850;6.970;2023-07-29T08:04:39;20.00;85.00
60313;DHT22;46158;52.850;6.970;2023-07-29T08:07:05;20.00;85.00
60313;DHT22;46158;52.850;6.970;2023-07-29T08:09:30;20.10;85.10
60313;DHT22;46158;52.850;6.970;2023-07-29T08:11:56;20.10;85.10
60313;DHT22;46158;52.850;6.970;2023-07-29T08:14:22;20.10;85.10
60313;DHT22;46158;52.850;6.970;2023-07-29T08:16:47;20.10;85.10
60313;DHT22;46158;52.850;6.970;2023-07-29T08:19:13;20.10;85.00
60313;DHT22;46158;52.850;6.970;2023-07-29T08:21:39;20.10;85.00
60313;DHT22;46158;52.850;6.970;2023-07-29T08:24:04;20.10;85.00
60313;DHT22;46158;52.850;6.970;2023-07-29T08:26:32;20.10;85.00
60313;DHT22;46158;52.850;6.970;2023-07-29T08:28:57;20.10;85.00
60313;DHT22;46158;52.850;6.970;2023-07-29T08:31:23;20.10;85.00
60313;DHT22;46158;52.850;6.970;2023-07-29T08:33:49;20.10;85.00
60313;DHT22;46158;52.850;6.970;2023-07-29T08:36:14;20.10;85.00
60313;DHT22;46158;52.850;6.970;2023-07-29T08:38:40;20.10;85.00
60313;DHT22;46158;52.850;6.970;2023-07-29T08:41:10;20.20;85.00
60313;DHT22;46158;52.850;6.970;2023-07-29T08:43:39;20.10;85.00
60313;DHT22;46158;52.850;6.970;2023-07-29T08:46:07;20.10;84.90
60313;DHT22;46158;52.850;6.970;2023-07-29T08:48:40;20.20;85.00
60313;DHT22;46158;52.850;6.970;2023-07-29T08:51:08;20.20;85.00
60313;DHT22;46158;52.850;6.970;2023-07-29T08:53:35;20.20;85.00
60313;DHT22;46158;52.850;6.970;2023-07-29T08:56:01;20.20;85.00
60313;DHT22;46158;52.850;6.970;2023-07-29T08:58:27;20.20;85.00
60313;DHT22;46158;52.850;6.970;2023-07-29T09:00:54;20.20;85.00
60313;DHT22;46158;52.850;6.970;2023-07-29T09:03:20;20.20;85.00
60313;DHT22;46158;52.850;6.970;2023-07-29T09:05:47;20.20;85.00
60313;DHT22;46158;52.850;6.970;2023-07-29T09:08:13;20.20;85.80
60313;DHT22;46158;52.850;6.970;2023-07-29T09:10:40;20.20;85.00
60313;DHT22;46158;52.850;6.970;2023-07-29T09:13:07;20.20;85.00
60313;DHT22;46158;52.850;6.970;2023-07-29T09:15:35;20.20;85.00
60313;DHT22;46158;52.850;6.970;2023-07-29T09:18:12;20.20;85.00
60313;DHT22;46158;52.850;6.970;2023-07-29T09:20:40;20.20;85.00
60313;DHT22;46158;52.850;6.970;2023-07-29T09:23:08;20.20;85.00
60313;DHT22;46158;52.850;6.970;2023-07-29T09:25:36;20.20;84.90
60313;DHT22;46158;52.850;6.970;2023-07-29T09:28:12;20.20;85.00
60313;DHT22;46158;52.850;6.970;2023-07-29T09:30:39;20.30;85.00
60313;DHT22;46158;52.850;6.970;2023-07-29T09:33:06;20.20;85.00
60313;DHT22;46158;52.850;6.970;2023-07-29T09:35:36;20.30;85.10
60313;DHT22;46158;52.850;6.970;2023-07-29T09:38:05;20.30;85.10
60313;DHT22;46158;52.850;6.970;2023-07-29T09:40:36;20.30;85.10
60313;DHT22;46158;52.850;6.970;2023-07-29T09:43:03;20.30;85.20
60313;DHT22;46158;52.850;6.970;2023-07-29T09:45:29;20.30;85.20
60313;DHT22;46158;52.850;6.970;2023-07-29T09:47:57;20.30;85.30
60313;DHT22;46158;52.850;6.970;2023-07-29T09:50:26;20.30;85.30
60313;DHT22;46158;52.850;6.970;2023-07-29T09:52:54;20.30;85.30
60313;DHT22;46158;52.850;6.970;2023-07-29T09:55:24;20.30;85.40
60313;DHT22;46158;52.850;6.970;2023-07-29T09:57:57;20.30;85.40
60313;DHT22;46158;52.850;6.970;2023-07-29T10:00:30;20.30;85.40
60313;DHT22;46158;52.850;6.970;2023-07-29T10:02:56;20.30;85.50
60313;DHT22;46158;52.850;6.970;2023-07-29T10:05:24;20.30;86.10
60313;DHT22;46158;52.850;6.970;2023-07-29T10:07:50;20.30;85.50
60313;DHT22;46158;52.850;6.970;2023-07-29T10:10:17;20.40;85.50
60313;DHT22;46158;52.850;6.970;2023-07-29T10:12:43;20.40;85.50
60313;DHT22;46158;52.850;6.970;2023-07-29T10:15:10;20.40;85.50
60313;DHT22;46158;52.850;6.970;2023-07-29T10:17:37;20.40;85.50
60313;DHT22;46158;52.850;6.970;2023-07-29T10:20:05;20.40;85.40
60313;DHT22;46158;52.850;6.970;2023-07-29T10:22:37;20.40;85.30
60313;DHT22;46158;52.850;6.970;2023-07-29T10:25:07;20.40;85.30
60313;DHT22;46158;52.850;6.970;2023-07-29T10:27:46;20.40;85.50
60313;DHT22;46158;52.850;6.970;2023-07-29T10:30:13;20.40;85.30
60313;DHT22;46158;52.850;6.970;2023-07-29T10:32:42;20.40;85.50
60313;DHT22;46158;52.850;6.970;2023-07-29T10:35:09;20.40;85.50
60313;DHT22;46158;52.850;6.970;2023-07-29T10:37:36;20.40;85.50
60313;DHT22;46158;52.850;6.970;2023-07-29T10:40:06;20.50;85.60
60313;DHT22;46158;52.850;6.970;2023-07-29T10:42:32;20.50;85.60
60313;DHT22;46158;52.850;6.970;2023-07-29T10:44:58;20.40;85.30
60313;DHT22;46158;52.850;6.970;2023-07-29T10:47:25;20.40;85.60
60313;DHT22;46158;52.850;6.970;2023-07-29T10:49:57;20.50;85.60
60313;DHT22;46158;52.850;6.970;2023-07-29T10:52:40;20.50;86.30
60313;DHT22;46158;52.850;6.970;2023-07-29T10:55:37;20.50;85.50
60313;DHT22;46158;52.850;6.970;2023-07-29T10:58:14;20.50;85.40
60313;DHT22;46158;52.850;6.970;2023-07-29T11:00:43;20.50;85.60
60313;DHT22;46158;52.850;6.970;2023-07-29T11:03:12;20.50;85.50
60313;DHT22;46158;52.850;6.970;2023-07-29T11:06:01;20.50;85.20
60313;DHT22;46158;52.850;6.970;2023-07-29T11:08:30;20.50;84.90
60313;DHT22;46158;52.850;6.970;2023-07-29T11:11:01;20.50;85.10
60313;DHT22;46158;52.850;6.970;2023-07-29T11:13:28;20.50;85.00
60313;DHT22;46158;52.850;6.970;2023-07-29T11:15:55;20.50;85.00
60313;DHT22;46158;52.850;6.970;2023-07-29T11:18:21;20.50;85.00
60313;DHT22;46158;52.850;6.970;2023-07-29T11:20:47;20.50;84.90
60313;DHT22;46158;52.850;6.970;2023-07-29T11:23:14;20.60;85.00
60313;DHT22;46158;52.850;6.970;2023-07-29T11:25:40;20.50;84.90
60313;DHT22;46158;52.850;6.970;2023-07-29T11:28:06;20.60;85.00
60313;DHT22;46158;52.850;6.970;2023-07-29T11:30:31;20.60;84.90
60313;DHT22;46158;52.850;6.970;2023-07-29T11:32:59;20.60;84.90
60313;DHT22;46158;52.850;6.970;2023-07-29T11:35:25;20.60;84.90
60313;DHT22;46158;52.850;6.970;2023-07-29T11:37:53;20.60;84.90
60313;DHT22;46158;52.850;6.970;2023-07-29T11:40:23;20.60;84.80
60313;DHT22;46158;52.850;6.970;2023-07-29T11:42:51;20.60;84.80
60313;DHT22;46158;52.850;6.970;2023-07-29T11:45:18;20.60;84.80
60313;DHT22;46158;52.850;6.970;2023-07-29T11:47:44;20.60;84.80
60313;DHT22;46158;52.850;6.970;2023-07-29T11:50:11;20.60;84.80
60313;DHT22;46158;52.850;6.970;2023-07-29T11:52:43;20.60;84.70
60313;DHT22;46158;52.850;6.970;2023-07-29T11:55:09;20.60;84.70
60313;DHT22;46158;52.850;6.970;2023-07-29T11:57:37;20.70;84.80
60313;DHT22;46158;52.850;6.970;2023-07-29T12:00:04;20.60;84.70
60313;DHT22;46158;52.850;6.970;2023-07-29T12:02:39;20.60;84.70
60313;DHT22;46158;52.850;6.970;2023-07-29T12:05:06;20.60;84.70
60313;DHT22;46158;52.850;6.970;2023-07-29T12:07:32;20.60;84.70
60313;DHT22;46158;52.850;6.970;2023-07-29T12:09:59;20.70;84.80
60313;DHT22;46158;52.850;6.970;2023-07-29T12:12:25;20.60;84.70
60313;DHT22;46158;52.850;6.970;2023-07-29T12:14:50;20.70;84.80
60313;DHT22;46158;52.850;6.970;2023-07-29T12:17:16;20.70;84.80
60313;DHT22;46158;52.850;6.970;2023-07-29T12:19:43;20.70;84.70
60313;DHT22;46158;52.850;6.970;2023-07-29T12:22:10;20.70;84.70
60313;DHT22;46158;52.850;6.970;2023-07-29T12:24:38;20.70;84.70
60313;DHT22;46158;52.850;6.970;2023-07-29T12:27:04;20.70;84.70
60313;DHT22;46158;52.850;6.970;2023-07-29T12:29:30;20.70;84.70
60313;DHT22;46158;52.850;6.970;2023-07-29T12:32:00;20.70;84.70
60313;DHT22;46158;52.850;6.970;2023-07-29T12:34:27;20.70;84.60
60313;DHT22;46158;52.850;6.970;2023-07-29T12:36:58;20.70;84.70
60313;DHT22;46158;52.850;6.970;2023-07-29T12:39:29;20.70;84.70
60313;DHT22;46158;52.850;6.970;2023-07-29T12:41:56;20.70;84.70
60313;DHT22;46158;52.850;6.970;2023-07-29T12:44:29;20.70;84.70
60313;DHT22;46158;52.850;6.970;2023-07-29T12:46:55;20.70;84.70
60313;DHT22;46158;52.850;6.970;2023-07-29T12:49:20;20.70;84.70
60313;DHT22;46158;52.850;6.970;2023-07-29T12:51:47;20.70;84.70
60313;DHT22;46158;52.850;6.970;2023-07-29T12:54:13;20.70;84.70
60313;DHT22;46158;52.850;6.970;2023-07-29T12:56:39;20.70;84.70
60313;DHT22;46158;52.850;6.970;2023-07-29T12:59:05;20.70;84.70
60313;DHT22;46158;52.850;6.970;2023-07-29T13:01:31;20.70;84.70
60313;DHT22;46158;52.850;6.970;2023-07-29T13:03:57;20.70;84.70
60313;DHT22;46158;52.850;6.970;2023-07-29T13:06:23;20.70;84.60
60313;DHT22;46158;52.850;6.970;2023-07-29T13:08:48;20.80;84.70
60313;DHT22;46158;52.850;6.970;2023-07-29T13:11:15;20.70;84.60
60313;DHT22;46158;52.850;6.970;2023-07-29T13:13:41;20.80;84.70
60313;DHT22;46158;52.850;6.970;2023-07-29T13:16:07;20.80;84.70
60313;DHT22;46158;52.850;6.970;2023-07-29T13:18:33;20.80;84.60
60313;DHT22;46158;52.850;6.970;2023-07-29T13:20:59;20.80;84.70
60313;DHT22;46158;52.850;6.970;2023-07-29T13:23:28;20.80;84.60
60313;DHT22;46158;52.850;6.970;2023-07-29T13:25:55;20.80;84.60
60313;DHT22;46158;52.850;6.970;2023-07-29T13:28:21;20.80;84.60
60313;DHT22;46158;52.850;6.970;2023-07-29T13:30:47;20.80;84.60
60313;DHT22;46158;52.850;6.970;2023-07-29T13:33:13;20.80;84.60
60313;DHT22;46158;52.850;6.970;2023-07-29T13:35:38;20.80;84.60
60313;DHT22;46158;52.850;6.970;2023-07-29T13:38:07;20.80;84.60
60313;DHT22;46158;52.850;6.970;2023-07-29T13:40:33;20.80;84.60
60313;DHT22;46158;52.850;6.970;2023-07-29T13:42:58;20.80;84.60
60313;DHT22;46158;52.850;6.970;2023-07-29T13:45:24;20.80;84.60
60313;DHT22;46158;52.850;6.970;2023-07-29T13:47:50;20.80;84.60
60313;DHT22;46158;52.850;6.970;2023-07-29T13:50:19;20.80;84.50
60313;DHT22;46158;52.850;6.970;2023-07-29T13:52:44;20.80;84.50
60313;DHT22;46158;52.850;6.970;2023-07-29T13:55:11;20.80;84.50
60313;DHT22;46158;52.850;6.970;2023-07-29T13:57:37;20.80;84.50
60313;DHT22;46158;52.850;6.970;2023-07-29T14:00:05;20.80;84.50
60313;DHT22;46158;52.850;6.970;2023-07-29T14:02:31;20.80;84.40
60313;DHT22;46158;52.850;6.970;2023-07-29T14:04:57;20.80;84.40
60313;DHT22;46158;52.850;6.970;2023-07-29T14:07:23;20.80;84.40
60313;DHT22;46158;52.850;6.970;2023-07-29T14:09:49;20.80;84.40
60313;DHT22;46158;52.850;6.970;2023-07-29T14:12:14;20.80;84.40
60313;DHT22;46158;52.850;6.970;2023-07-29T14:14:41;20.80;84.30
60313;DHT22;46158;52.850;6.970;2023-07-29T14:17:07;20.80;84.30
60313;DHT22;46158;52.850;6.970;2023-07-29T14:19:37;20.80;84.30
60313;DHT22;46158;52.850;6.970;2023-07-29T14:22:02;20.80;85.20
60313;DHT22;46158;52.850;6.970;2023-07-29T14:24:28;20.80;84.70
60313;DHT22;46158;52.850;6.970;2023-07-29T14:26:54;20.80;85.10
60313;DHT22;46158;52.850;6.970;2023-07-29T14:29:19;20.80;85.00
60313;DHT22;46158;52.850;6.970;2023-07-29T14:31:45;20.80;84.80
60313;DHT22;46158;52.850;6.970;2023-07-29T14:34:11;20.80;84.70
60313;DHT22;46158;52.850;6.970;2023-07-29T14:36:36;20.70;84.60
60313;DHT22;46158;52.850;6.970;2023-07-29T14:39:03;20.70;84.50
60313;DHT22;46158;52.850;6.970;2023-07-29T14:41:29;20.70;84.60
60313;DHT22;46158;52.850;6.970;2023-07-29T14:43:55;20.70;84.70
60313;DHT22;46158;52.850;6.970;2023-07-29T14:46:21;20.70;84.80
60313;DHT22;46158;52.850;6.970;2023-07-29T14:48:46;20.70;84.90
60313;DHT22;46158;52.850;6.970;2023-07-29T14:51:12;20.70;85.00
60313;DHT22;46158;52.850;6.970;2023-07-29T14:53:38;20.70;84.90
60313;DHT22;46158;52.850;6.970;2023-07-29T14:56:04;20.70;85.00
60313;DHT22;46158;52.850;6.970;2023-07-29T14:58:30;20.70;85.10
60313;DHT22;46158;52.850;6.970;2023-07-29T15:00:56;20.70;85.10
60313;DHT22;46158;52.850;6.970;2023-07-29T15:03:23;20.70;85.20
60313;DHT22;46158;52.850;6.970;2023-07-29T15:05:49;20.70;85.30
60313;DHT22;46158;52.850;6.970;2023-07-29T15:08:14;20.70;85.40
60313;DHT22;46158;52.850;6.970;2023-07-29T15:10:40;20.70;86.10
60313;DHT22;46158;52.850;6.970;2023-07-29T15:13:06;20.70;85.40
60313;DHT22;46158;52.850;6.970;2023-07-29T15:15:32;20.70;85.40
60313;DHT22;46158;52.850;6.970;2023-07-29T15:17:57;20.70;85.50
60313;DHT22;46158;52.850;6.970;2023-07-29T15:20:23;20.70;85.50
60313;DHT22;46158;52.850;6.970;2023-07-29T15:22:49;20.70;85.50
60313;DHT22;46158;52.850;6.970;2023-07-29T15:25:14;20.70;85.60
60313;DHT22;46158;52.850;6.970;2023-07-29T15:27:40;20.70;85.70